sensor_id;sensor_type;location;lat;lon;timestamp;temperature;humidity
25138;DHT22;13112;50.986;4.354;2023-02-03T00:01:14;10.40;99.90
25138;DHT22;13112;50.986;4.354;2023-02-03T00:03:41;10.30;99.90
25138;DHT22;13112;50.986;4.354;2023-02-03T00:06:07;10.20;99.90
25138;DHT22;13112;50.986;4.354;2023-02-03T00:08:35;10.40;99.90
25138;DHT22;13112;50.986;4.354;2023-02-03T00:11:01;10.40;99.90
25138;DHT22;13112;50.986;4.354;2023-02-03T00:13:27;10.30;99.90
25138;DHT22;13112;50.986;4.354;2023-02-03T00:15:53;10.30;99.90
25138;DHT22;13112;50.986;4.354;2023-02-03T00:18:18;10.40;99.90
25138;DHT22;13112;50.986;4.354;2023-02-03T00:20:44;10.30;99.90
25138;DHT22;13112;50.986;4.354;2023-02-03T00:23:11;10.20;99.90
25138;DHT22;13112;50.986;4.354;2023-02-03T00:25:37;10.40;99.90
25138;DHT22;13112;50.986;4.354;2023-02-03T00:28:03;10.30;99.90
25138;DHT22;13112;50.986;4.354;2023-02-03T00:30:29;10.30;99.90
25138;DHT22;13112;50.986;4.354;2023-02-03T00:32:55;10.30;99.90
25138;DHT22;13112;50.986;4.354;2023-02-03T00:35:21;10.30;99.90
25138;DHT22;13112;50.986;4.354;2023-02-03T00:37:52;10.40;99.90
25138;DHT22;13112;50.986;4.354;2023-02-03T00:40:18;10.50;99.90
25138;DHT22;13112;50.986;4.354;2023-02-03T00:42:44;10.40;99.90
25138;DHT22;13112;50.986;4.354;2023-02-03T00:45:10;10.30;99.90
25138;DHT22;13112;50.986;4.354;2023-02-03T00:47:36;10.40;99.90
25138;DHT22;13112;50.986;4.354;2023-02-03T00:50:02;10.50;99.90
25138;DHT22;13112;50.986;4.354;2023-02-03T00:52:27;10.50;99.90
25138;DHT22;13112;50.986;4.354;2023-02-03T00:54:53;10.40;99.90
25138;DHT22;13112;50.986;4.354;2023-02-03T00:57:18;10.30;99.90
25138;DHT22;13112;50.986;4.354;2023-02-03T00:59:44;10.40;99.90
25138;DHT22;13112;50.986;4.354;2023-02-03T01:02:10;10.40;99.90
25138;DHT22;13112;50.986;4.354;2023-02-03T01:04:35;10.40;99.90
25138;DHT22;13112;50.986;4.354;2023-02-03T01:07:01;10.40;99.90
25138;DHT22;13112;50.986;4.354;2023-02-03T01:09:27;10.40;99.90
25138;DHT22;13112;50.986;4.354;2023-02-03T01:11:52;10.30;99.90
25138;DHT22;13112;50.986;4.354;2023-02-03T01:14:18;10.40;99.90
25138;DHT22;13112;50.986;4.354;2023-02-03T01:16:44;10.40;99.90
25138;DHT22;13112;50.986;4.354;2023-02-03T01:19:09;10.30;99.90
25138;DHT22;13112;50.986;4.354;2023-02-03T01:21:35;10.30;99.90
25138;DHT22;13112;50.986;4.354;2023-02-03T01:24:01;10.40;99.90
25138;DHT22;13112;50.986;4.354;2023-02-03T01:26:27;10.40;99.90
25138;DHT22;13112;50.986;4.354;2023-02-03T01:28:55;10.40;99.90
25138;DHT22;13112;50.986;4.354;2023-02-03T01:31:27;10.30;99.90
25138;DHT22;13112;50.986;4.354;2023-02-03T01:33:53;10.20;99.90
25138;DHT22;13112;50.986;4.354;2023-02-03T01:36:21;10.20;99.90
25138;DHT22;13112;50.986;4.354;2023-02-03T01:38:48;10.20;99.90
25138;DHT22;13112;50.986;4.354;2023-02-03T01:41:19;10.20;99.90
25138;DHT22;13112;50.986;4.354;2023-02-03T01:43:48;10.30;99.90
25138;DHT22;13112;50.986;4.354;2023-02-03T01:46:30;10.40;99.90
25138;DHT22;13112;50.986;4.354;2023-02-03T01:51:44;10.40;99.90
25138;DHT22;13112;50.986;4.354;2023-02-03T01:54:16;10.30;99.90
25138;DHT22;13112;50.986;4.354;2023-02-03T01:56:46;10.30;99.90
25138;DHT22;13112;50.986;4.354;2023-02-03T01:59:15;10.40;99.90
25138;DHT22;13112;50.986;4.354;2023-02-03T02:01:42;10.40;99.90
25138;DHT22;13112;50.986;4.354;2023-02-03T02:04:09;10.50;99.90
25138;DHT22;13112;50.986;4.354;2023-02-03T02:06:35;10.50;99.90
25138;DHT22;13112;50.986;4.354;2023-02-03T02:09:01;10.40;99.90
25138;DHT22;13112;50.986;4.354;2023-02-03T02:11:27;10.50;99.90
25138;DHT22;13112;50.986;4.354;2023-02-03T02:13:56;10.50;99.90
25138;DHT22;13112;50.986;4.354;2023-02-03T02:38:37;10.60;99.90
25138;DHT22;13112;50.986;4.354;2023-02-03T02:43:43;10.60;99.90
25138;DHT22;13112;50.986;4.354;2023-02-03T02:46:19;10.50;99.90
25138;DHT22;13112;50.986;4.354;2023-02-03T02:49:08;10.60;99.90
25138;DHT22;13112;50.986;4.354;2023-02-03T02:51:38;10.50;99.90
25138;DHT22;13112;50.986;4.354;2023-02-03T02:54:07;10.40;99.90
25138;DHT22;13112;50.986;4.354;2023-02-03T02:56:38;10.30;99.90
25138;DHT22;13112;50.986;4.354;2023-02-03T02:59:05;10.40;99.90
25138;DHT22;13112;50.986;4.354;2023-02-03T03:01:31;10.60;99.90
25138;DHT22;13112;50.986;4.354;2023-02-03T03:04:00;10.40;99.90
25138;DHT22;13112;50.986;4.354;2023-02-03T03:06:33;10.30;99.90
25138;DHT22;13112;50.986;4.354;2023-02-03T03:09:14;10.30;99.90
25138;DHT22;13112;50.986;4.354;2023-02-03T03:11:46;10.40;99.90
25138;DHT22;13112;50.986;4.354;2023-02-03T03:14:15;10.40;99.90
25138;DHT22;13112;50.986;4.354;2023-02-03T03:16:45;10.30;99.90
25138;DHT22;13112;50.986;4.354;2023-02-03T03:19:17;10.50;99.90
25138;DHT22;13112;50.986;4.354;2023-02-03T03:21:53;10.50;99.90
25138;DHT22;13112;50.986;4.354;2023-02-03T03:24:25;10.40;99.90
25138;DHT22;13112;50.986;4.354;2023-02-03T03:27:01;10.40;99.90
25138;DHT22;13112;50.986;4.354;2023-02-03T03:32:00;10.40;99.90
25138;DHT22;13112;50.986;4.354;2023-02-03T03:34:27;10.40;99.90
25138;DHT22;13112;50.986;4.354;2023-02-03T03:37:05;10.30;99.90
25138;DHT22;13112;50.986;4.354;2023-02-03T03:42:19;10.20;99.90
25138;DHT22;13112;50.986;4.354;2023-02-03T03:45:06;10.30;99.90
25138;DHT22;13112;50.986;4.354;2023-02-03T03:50:06;10.40;99.90
25138;DHT22;13112;50.986;4.354;2023-02-03T03:52:35;10.20;99.90
25138;DHT22;13112;50.986;4.354;2023-02-03T03:55:04;10.10;99.90
25138;DHT22;13112;50.986;4.354;2023-02-03T03:57:36;10.20;99.90
25138;DHT22;13112;50.986;4.354;2023-02-03T04:00:07;10.20;99.90
25138;DHT22;13112;50.986;4.354;2023-02-03T04:02:35;10.30;99.90
25138;DHT22;13112;50.986;4.354;2023-02-03T04:05:04;10.30;99.90
25138;DHT22;13112;50.986;4.354;2023-02-03T04:07:48;10.30;99.90
25138;DHT22;13112;50.986;4.354;2023-02-03T04:12:45;10.30;99.90
25138;DHT22;13112;50.986;4.354;2023-02-03T04:15:10;10.30;99.90
25138;DHT22;13112;50.986;4.354;2023-02-03T04:17:36;10.30;99.90
25138;DHT22;13112;50.986;4.354;2023-02-03T04:20:03;10.30;99.90
25138;DHT22;13112;50.986;4.354;2023-02-03T04:22:29;10.30;99.90
25138;DHT22;13112;50.986;4.354;2023-02-03T04:24:55;10.40;99.90
25138;DHT22;13112;50.986;4.354;2023-02-03T04:27:24;10.50;99.90
25138;DHT22;13112;50.986;4.354;2023-02-03T04:29:50;10.50;99.90
25138;DHT22;13112;50.986;4.354;2023-02-03T04:32:15;10.50;99.90
25138;DHT22;13112;50.986;4.354;2023-02-03T04:34:41;10.40;99.90
25138;DHT22;13112;50.986;4.354;2023-02-03T04:37:07;10.40;99.90
25138;DHT22;13112;50.986;4.354;2023-02-03T04:39:33;10.50;99.90
25138;DHT22;13112;50.986;4.354;2023-02-03T04:41:58;10.50;99.90
25138;DHT22;13112;50.986;4.354;2023-02-03T04:44:24;10.50;99.90
25138;DHT22;13112;50.986;4.354;2023-02-03T04:46:50;10.50;99.90
25138;DHT22;13112;50.986;4.354;2023-02-03T04:49:15;10.40;99.90
25138;DHT22;13112;50.986;4.354;2023-02-03T04:51:42;10.30;99.90
25138;DHT22;13112;50.986;4.354;2023-02-03T04:54:11;10.20;99.90
25138;DHT22;13112;50.986;4.354;2023-02-03T04:56:36;10.20;99.90
25138;DHT22;13112;50.986;4.354;2023-02-03T04:59:02;10.30;99.90
25138;DHT22;13112;50.986;4.354;2023-02-03T05:01:28;10.40;99.90
25138;DHT22;13112;50.986;4.354;2023-02-03T05:03:54;10.30;99.90
25138;DHT22;13112;50.986;4.354;2023-02-03T05:06:24;10.30;99.90
25138;DHT22;13112;50.986;4.354;2023-02-03T05:08:51;10.20;99.90
25138;DHT22;13112;50.986;4.354;2023-02-03T05:11:17;10.20;99.90
25138;DHT22;13112;50.986;4.354;2023-02-03T05:13:42;10.20;99.90
25138;DHT22;13112;50.986;4.354;2023-02-03T05:16:08;10.20;99.90
25138;DHT22;13112;50.986;4.354;2023-02-03T05:18:33;10.30;99.90
25138;DHT22;13112;50.986;4.354;2023-02-03T05:20:59;10.30;99.90
25138;DHT22;13112;50.986;4.354;2023-02-03T05:23:25;10.20;99.90
25138;DHT22;13112;50.986;4.354;2023-02-03T05:25:50;10.20;99.90
25138;DHT22;13112;50.986;4.354;2023-02-03T05:28:16;10.30;99.90
25138;DHT22;13112;50.986;4.354;2023-02-03T05:30:42;10.40;99.90
25138;DHT22;13112;50.986;4.354;2023-02-03T05:33:08;10.40;99.90
25138;DHT22;13112;50.986;4.354;2023-02-03T05:35:33;10.40;99.90
25138;DHT22;13112;50.986;4.354;2023-02-03T05:37:59;10.30;99.90
25138;DHT22;13112;50.986;4.354;2023-02-03T05:40:25;10.20;99.90
25138;DHT22;13112;50.986;4.354;2023-02-03T05:43:10;10.30;99.90
25138;DHT22;13112;50.986;4.354;2023-02-03T05:45:36;10.40;99.90
25138;DHT22;13112;50.986;4.354;2023-02-03T05:48:02;10.40;99.90
25138;DHT22;13112;50.986;4.354;2023-02-03T05:50:29;10.50;99.90
25138;DHT22;13112;50.986;4.354;2023-02-03T05:53:02;10.50;99.90
25138;DHT22;13112;50.986;4.354;2023-02-03T05:55:28;10.40;99.90
25138;DHT22;13112;50.986;4.354;2023-02-03T05:57:54;10.40;99.90
25138;DHT22;13112;50.986;4.354;2023-02-03T06:00:20;10.40;99.90
25138;DHT22;13112;50.986;4.354;2023-02-03T06:02:51;10.40;99.90
25138;DHT22;13112;50.986;4.354;2023-02-03T06:05:17;10.40;99.90
25138;DHT22;13112;50.986;4.354;2023-02-03T06:07:43;10.50;99.90
25138;DHT22;13112;50.986;4.354;2023-02-03T06:10:09;10.60;99.90
25138;DHT22;13112;50.986;4.354;2023-02-03T06:12:36;10.60;99.90
25138;DHT22;13112;50.986;4.354;2023-02-03T06:15:02;10.40;99.90
25138;DHT22;13112;50.986;4.354;2023-02-03T06:17:28;10.40;99.90
25138;DHT22;13112;50.986;4.354;2023-02-03T06:19:53;10.40;99.90
25138;DHT22;13112;50.986;4.354;2023-02-03T06:22:19;10.30;99.90
25138;DHT22;13112;50.986;4.354;2023-02-03T06:24:45;10.20;99.90
25138;DHT22;13112;50.986;4.354;2023-02-03T06:27:15;10.30;99.90
25138;DHT22;13112;50.986;4.354;2023-02-03T06:29:41;10.40;99.90
25138;DHT22;13112;50.986;4.354;2023-02-03T06:32:08;10.40;99.90
25138;DHT22;13112;50.986;4.354;2023-02-03T06:34:33;10.40;99.90
25138;DHT22;13112;50.986;4.354;2023-02-03T06:36:59;10.40;99.90
25138;DHT22;13112;50.986;4.354;2023-02-03T06:39:25;10.30;99.90
25138;DHT22;13112;50.986;4.354;2023-02-03T06:41:51;10.20;99.90
25138;DHT22;13112;50.986;4.354;2023-02-03T06:44:17;10.30;99.90
25138;DHT22;13112;50.986;4.354;2023-02-03T06:46:43;10.20;99.90
25138;DHT22;13112;50.986;4.354;2023-02-03T06:49:08;10.20;99.90
25138;DHT22;13112;50.986;4.354;2023-02-03T06:51:35;10.20;99.90
25138;DHT22;13112;50.986;4.354;2023-02-03T06:54:01;10.20;99.90
25138;DHT22;13112;50.986;4.354;2023-02-03T06:56:30;10.30;99.90
25138;DHT22;13112;50.986;4.354;2023-02-03T06:58:56;10.20;99.90
25138;DHT22;13112;50.986;4.354;2023-02-03T07:01:23;10.10;99.90
25138;DHT22;13112;50.986;4.354;2023-02-03T07:03:50;10.20;99.90
25138;DHT22;13112;50.986;4.354;2023-02-03T07:06:16;10.20;99.90
25138;DHT22;13112;50.986;4.354;2023-02-03T07:08:42;10.20;99.90
25138;DHT22;13112;50.986;4.354;2023-02-03T07:11:08;10.30;99.90
25138;DHT22;13112;50.986;4.354;2023-02-03T07:13:34;10.20;99.90
25138;DHT22;13112;50.986;4.354;2023-02-03T07:15:59;10.30;99.90
25138;DHT22;13112;50.986;4.354;2023-02-03T07:18:25;10.20;99.90
25138;DHT22;13112;50.986;4.354;2023-02-03T07:20:51;10.30;99.90
25138;DHT22;13112;50.986;4.354;2023-02-03T07:23:18;10.30;99.90
25138;DHT22;13112;50.986;4.354;2023-02-03T07:25:44;10.40;99.90
25138;DHT22;13112;50.986;4.354;2023-02-03T07:28:10;10.30;99.90
25138;DHT22;13112;50.986;4.354;2023-02-03T07:30:35;10.30;99.90
25138;DHT22;13112;50.986;4.354;2023-02-03T07:33:01;10.40;99.90
25138;DHT22;13112;50.986;4.354;2023-02-03T07:35:27;10.40;99.90
25138;DHT22;13112;50.986;4.354;2023-02-03T07:37:53;10.30;99.90
25138;DHT22;13112;50.986;4.354;2023-02-03T07:40:19;10.40;99.90
25138;DHT22;13112;50.986;4.354;2023-02-03T07:42:47;10.50;99.90
25138;DHT22;13112;50.986;4.354;2023-02-03T07:45:14;10.40;99.90
25138;DHT22;13112;50.986;4.354;2023-02-03T07:47:42;10.50;99.90
25138;DHT22;13112;50.986;4.354;2023-02-03T07:50:09;10.50;99.90
25138;DHT22;13112;50.986;4.354;2023-02-03T07:52:35;10.40;99.90
25138;DHT22;13112;50.986;4.354;2023-02-03T07:55:01;10.50;99.90
25138;DHT22;13112;50.986;4.354;2023-02-03T07:57:27;10.60;99.90
25138;DHT22;13112;50.986;4.354;2023-02-03T07:59:53;10.50;99.90
25138;DHT22;13112;50.986;4.354;2023-02-03T08:02:18;10.50;99.90
25138;DHT22;13112;50.986;4.354;2023-02-03T08:04:44;10.60;99.90
25138;DHT22;13112;50.986;4.354;2023-02-03T08:07:10;10.60;99.90
25138;DHT22;13112;50.986;4.354;2023-02-03T08:09:35;10.70;99.90
25138;DHT22;13112;50.986;4.354;2023-02-03T08:12:01;10.80;99.90
25138;DHT22;13112;50.986;4.354;2023-02-03T08:14:27;10.70;99.90
25138;DHT22;13112;50.986;4.354;2023-02-03T08:16:53;10.70;99.90
25138;DHT22;13112;50.986;4.354;2023-02-03T08:19:18;10.70;99.90
25138;DHT22;13112;50.986;4.354;2023-02-03T08:21:44;10.70;99.90
25138;DHT22;13112;50.986;4.354;2023-02-03T08:24:09;10.60;99.90
25138;DHT22;13112;50.986;4.354;2023-02-03T08:26:36;10.70;99.90
25138;DHT22;13112;50.986;4.354;2023-02-03T08:29:02;10.80;99.90
25138;DHT22;13112;50.986;4.354;2023-02-03T08:31:28;10.80;99.90
25138;DHT22;13112;50.986;4.354;2023-02-03T08:33:54;10.70;99.90
25138;DHT22;13112;50.986;4.354;2023-02-03T08:36:20;10.80;99.90
25138;DHT22;13112;50.986;4.354;2023-02-03T08:38:45;10.90;99.90
25138;DHT22;13112;50.986;4.354;2023-02-03T08:41:14;10.90;99.90
25138;DHT22;13112;50.986;4.354;2023-02-03T08:43:40;10.80;99.90
25138;DHT22;13112;50.986;4.354;2023-02-03T08:46:08;10.90;99.90
25138;DHT22;13112;50.986;4.354;2023-02-03T08:48:34;10.80;99.90
25138;DHT22;13112;50.986;4.354;2023-02-03T08:51:00;10.80;99.90
25138;DHT22;13112;50.986;4.354;2023-02-03T08:53:26;10.80;99.90
25138;DHT22;13112;50.986;4.354;2023-02-03T08:55:52;10.80;99.90
25138;DHT22;13112;50.986;4.354;2023-02-03T08:58:18;10.70;99.90
25138;DHT22;13112;50.986;4.354;2023-02-03T09:00:43;10.70;99.90
25138;DHT22;13112;50.986;4.354;2023-02-03T09:03:09;10.80;99.90
25138;DHT22;13112;50.986;4.354;2023-02-03T09:05:35;10.80;99.90
25138;DHT22;13112;50.986;4.354;2023-02-03T09:08:01;10.80;99.90
25138;DHT22;13112;50.986;4.354;2023-02-03T09:10:27;10.80;99.90
25138;DHT22;13112;50.986;4.354;2023-02-03T09:12:53;10.70;99.90
25138;DHT22;13112;50.986;4.354;2023-02-03T09:15:18;10.70;99.90
25138;DHT22;13112;50.986;4.354;2023-02-03T09:17:44;10.70;99.90
25138;DHT22;13112;50.986;4.354;2023-02-03T09:20:10;10.80;99.90
25138;DHT22;13112;50.986;4.354;2023-02-03T09:22:38;10.80;99.90
25138;DHT22;13112;50.986;4.354;2023-02-03T09:25:05;10.80;99.90
25138;DHT22;13112;50.986;4.354;2023-02-03T09:27:30;10.90;99.90
25138;DHT22;13112;50.986;4.354;2023-02-03T09:29:56;10.90;99.90
25138;DHT22;13112;50.986;4.354;2023-02-03T09:32:23;10.90;99.90
25138;DHT22;13112;50.986;4.354;2023-02-03T09:34:48;11.00;99.90
25138;DHT22;13112;50.986;4.354;2023-02-03T09:37:14;11.00;99.90
25138;DHT22;13112;50.986;4.354;2023-02-03T09:39:40;11.00;99.90
25138;DHT22;13112;50.986;4.354;2023-02-03T09:45:04;11.00;99.90
25138;DHT22;13112;50.986;4.354;2023-02-03T09:47:39;10.90;99.90
25138;DHT22;13112;50.986;4.354;2023-02-03T09:50:13;10.90;99.90
25138;DHT22;13112;50.986;4.354;2023-02-03T09:52:40;11.00;99.90
25138;DHT22;13112;50.986;4.354;2023-02-03T09:57:56;11.20;99.90
25138;DHT22;13112;50.986;4.354;2023-02-03T10:00:28;11.20;99.90
25138;DHT22;13112;50.986;4.354;2023-02-03T10:03:02;11.30;99.90
25138;DHT22;13112;50.986;4.354;2023-02-03T10:05:42;11.40;99.90
25138;DHT22;13112;50.986;4.354;2023-02-03T10:08:27;11.50;99.90
25138;DHT22;13112;50.986;4.354;2023-02-03T10:11:49;11.60;99.90
25138;DHT22;13112;50.986;4.354;2023-02-03T10:14:08;11.70;99.90
25138;DHT22;13112;50.986;4.354;2023-02-03T10:16:50;11.80;99.90
25138;DHT22;13112;50.986;4.354;2023-02-03T10:19:24;12.00;99.90
25138;DHT22;13112;50.986;4.354;2023-02-03T10:21:57;12.00;99.90
25138;DHT22;13112;50.986;4.354;2023-02-03T10:24:47;12.20;99.90
25138;DHT22;13112;50.986;4.354;2023-02-03T10:27:23;12.20;99.90
25138;DHT22;13112;50.986;4.354;2023-02-03T10:32:43;11.90;99.90
25138;DHT22;13112;50.986;4.354;2023-02-03T10:35:13;11.90;99.90
25138;DHT22;13112;50.986;4.354;2023-02-03T10:37:58;11.80;99.90
25138;DHT22;13112;50.986;4.354;2023-02-03T10:40:25;11.80;99.90
25138;DHT22;13112;50.986;4.354;2023-02-03T10:42:53;11.80;99.90
25138;DHT22;13112;50.986;4.354;2023-02-03T10:45:38;11.80;99.90
25138;DHT22;13112;50.986;4.354;2023-02-03T10:48:06;11.70;99.90
25138;DHT22;13112;50.986;4.354;2023-02-03T10:50:37;11.60;99.90
25138;DHT22;13112;50.986;4.354;2023-02-03T10:53:24;11.60;99.90
25138;DHT22;13112;50.986;4.354;2023-02-03T10:56:03;11.70;99.90
25138;DHT22;13112;50.986;4.354;2023-02-03T10:58:32;11.70;99.90
25138;DHT22;13112;50.986;4.354;2023-02-03T11:01:17;11.80;99.90
25138;DHT22;13112;50.986;4.354;2023-02-03T11:06:18;11.80;99.90
25138;DHT22;13112;50.986;4.354;2023-02-03T11:08:46;11.80;99.90
25138;DHT22;13112;50.986;4.354;2023-02-03T11:11:29;11.70;99.90
25138;DHT22;13112;50.986;4.354;2023-02-03T11:16:31;11.60;99.90
25138;DHT22;13112;50.986;4.354;2023-02-03T11:19:14;11.60;99.90
25138;DHT22;13112;50.986;4.354;2023-02-03T11:21:45;11.60;99.90
25138;DHT22;13112;50.986;4.354;2023-02-03T11:24:23;11.60;99.90
25138;DHT22;13112;50.986;4.354;2023-02-03T11:29:26;11.50;99.90
25138;DHT22;13112;50.986;4.354;2023-02-03T11:31:57;11.60;99.90
25138;DHT22;13112;50.986;4.354;2023-02-03T11:36:52;11.80;99.90
25138;DHT22;13112;50.986;4.354;2023-02-03T11:39:24;11.70;99.90
25138;DHT22;13112;50.986;4.354;2023-02-03T11:41:50;11.80;99.90
25138;DHT22;13112;50.986;4.354;2023-02-03T11:44:22;11.70;99.90
25138;DHT22;13112;50.986;4.354;2023-02-03T11:46:57;11.70;99.90
25138;DHT22;13112;50.986;4.354;2023-02-03T11:49:53;11.70;99.90
25138;DHT22;13112;50.986;4.354;2023-02-03T11:55:37;11.70;99.90
25138;DHT22;13112;50.986;4.354;2023-02-03T12:10:50;11.80;99.90
25138;DHT22;13112;50.986;4.354;2023-02-03T12:13:51;11.90;99.90
25138;DHT22;13112;50.986;4.354;2023-02-03T12:21:43;11.80;99.90
25138;DHT22;13112;50.986;4.354;2023-02-03T12:24:14;11.90;99.90
25138;DHT22;13112;50.986;4.354;2023-02-03T12:29:35;12.00;99.90
25138;DHT22;13112;50.986;4.354;2023-02-03T12:35:38;12.20;99.90
25138;DHT22;13112;50.986;4.354;2023-02-03T12:37:49;12.20;99.90
25138;DHT22;13112;50.986;4.354;2023-02-03T12:40:21;12.20;99.90
25138;DHT22;13112;50.986;4.354;2023-02-03T12:42:58;12.30;99.90
25138;DHT22;13112;50.986;4.354;2023-02-03T12:45:29;12.30;99.90
25138;DHT22;13112;50.986;4.354;2023-02-03T12:48:12;12.30;99.90
25138;DHT22;13112;50.986;4.354;2023-02-03T12:50:47;12.30;99.90
25138;DHT22;13112;50.986;4.354;2023-02-03T12:53:24;12.40;99.90
25138;DHT22;13112;50.986;4.354;2023-02-03T12:55:57;12.40;99.90
25138;DHT22;13112;50.986;4.354;2023-02-03T13:01:27;12.40;99.90
25138;DHT22;13112;50.986;4.354;2023-02-03T13:04:07;12.50;99.90
25138;DHT22;13112;50.986;4.354;2023-02-03T13:14:58;12.50;99.90
25138;DHT22;13112;50.986;4.354;2023-02-03T13:17:40;12.50;99.90
25138;DHT22;13112;50.986;4.354;2023-02-03T13:20:22;12.50;99.90
25138;DHT22;13112;50.986;4.354;2023-02-03T13:22:49;12.50;99.90
25138;DHT22;13112;50.986;4.354;2023-02-03T13:28:08;12.50;99.90
25138;DHT22;13112;50.986;4.354;2023-02-03T13:39:42;12.40;99.90
25138;DHT22;13112;50.986;4.354;2023-02-03T13:42:22;12.40;99.90
25138;DHT22;13112;50.986;4.354;2023-02-03T13:45:24;12.50;99.90
25138;DHT22;13112;50.986;4.354;2023-02-03T13:47:52;12.40;99.90
25138;DHT22;13112;50.986;4.354;2023-02-03T13:50:28;12.50;99.90
25138;DHT22;13112;50.986;4.354;2023-02-03T13:52:57;12.50;99.90
25138;DHT22;13112;50.986;4.354;2023-02-03T13:55:28;12.50;99.90
25138;DHT22;13112;50.986;4.354;2023-02-03T13:57:54;12.60;99.90
25138;DHT22;13112;50.986;4.354;2023-02-03T14:05:52;13.10;99.90
25138;DHT22;13112;50.986;4.354;2023-02-03T14:16:51;13.30;99.90
25138;DHT22;13112;50.986;4.354;2023-02-03T14:21:54;13.10;99.90
25138;DHT22;13112;50.986;4.354;2023-02-03T14:24:24;13.10;99.90
25138;DHT22;13112;50.986;4.354;2023-02-03T14:26:56;13.20;99.90
25138;DHT22;13112;50.986;4.354;2023-02-03T14:29:34;13.10;99.90
25138;DHT22;13112;50.986;4.354;2023-02-03T14:32:08;13.20;99.90
25138;DHT22;13112;50.986;4.354;2023-02-03T14:37:30;13.30;99.90
25138;DHT22;13112;50.986;4.354;2023-02-03T14:40:23;13.20;99.90
25138;DHT22;13112;50.986;4.354;2023-02-03T14:45:52;13.20;99.90
25138;DHT22;13112;50.986;4.354;2023-02-03T14:56:48;13.20;99.90
25138;DHT22;13112;50.986;4.354;2023-02-03T14:59:46;13.20;99.90
25138;DHT22;13112;50.986;4.354;2023-02-03T15:02:21;13.10;99.90
25138;DHT22;13112;50.986;4.354;2023-02-03T15:07:38;13.00;99.90
25138;DHT22;13112;50.986;4.354;2023-02-03T15:13:26;13.00;99.90
25138;DHT22;13112;50.986;4.354;2023-02-03T15:15:58;13.00;99.90
25138;DHT22;13112;50.986;4.354;2023-02-03T15:20:54;13.10;99.90
25138;DHT22;13112;50.986;4.354;2023-02-03T15:23:25;13.20;99.90
25138;DHT22;13112;50.986;4.354;2023-02-03T15:25:59;13.00;99.90
25138;DHT22;13112;50.986;4.354;2023-02-03T15:28:27;13.10;99.90
25138;DHT22;13112;50.986;4.354;2023-02-03T15:31:11;13.00;99.90
25138;DHT22;13112;50.986;4.354;2023-02-03T15:33:39;13.20;99.90
25138;DHT22;13112;50.986;4.354;2023-02-03T15:36:15;13.10;99.90
25138;DHT22;13112;50.986;4.354;2023-02-03T15:38:47;13.10;99.90
25138;DHT22;13112;50.986;4.354;2023-02-03T15:41:24;13.20;99.90
25138;DHT22;13112;50.986;4.354;2023-02-03T15:43:57;13.10;99.90
25138;DHT22;13112;50.986;4.354;2023-02-03T15:49:37;13.00;99.90
25138;DHT22;13112;50.986;4.354;2023-02-03T15:52:16;13.10;99.90
25138;DHT22;13112;50.986;4.354;2023-02-03T15:54:47;13.10;99.90
25138;DHT22;13112;50.986;4.354;2023-02-03T15:57:20;13.00;99.90
25138;DHT22;13112;50.986;4.354;2023-02-03T15:59:56;13.00;99.90
25138;DHT22;13112;50.986;4.354;2023-02-03T16:02:38;13.00;99.90
25138;DHT22;13112;50.986;4.354;2023-02-03T16:05:25;13.00;99.90
25138;DHT22;13112;50.986;4.354;2023-02-03T16:07:55;12.90;99.90
25138;DHT22;13112;50.986;4.354;2023-02-03T16:10:26;12.80;99.90
25138;DHT22;13112;50.986;4.354;2023-02-03T16:12:53;12.80;99.90
25138;DHT22;13112;50.986;4.354;2023-02-03T16:15:23;12.80;99.90
25138;DHT22;13112;50.986;4.354;2023-02-03T16:17:56;12.80;99.90
25138;DHT22;13112;50.986;4.354;2023-02-03T16:20:26;12.40;99.90
25138;DHT22;13112;50.986;4.354;2023-02-03T16:23:21;12.30;99.90
25138;DHT22;13112;50.986;4.354;2023-02-03T16:26:15;12.20;99.90
25138;DHT22;13112;50.986;4.354;2023-02-03T16:31:48;12.20;99.90
25138;DHT22;13112;50.986;4.354;2023-02-03T16:34:35;12.20;99.90
25138;DHT22;13112;50.986;4.354;2023-02-03T16:37:23;12.10;99.90
25138;DHT22;13112;50.986;4.354;2023-02-03T16:40:10;12.20;99.90
25138;DHT22;13112;50.986;4.354;2023-02-03T16:42:54;12.10;99.90
25138;DHT22;13112;50.986;4.354;2023-02-03T16:45:38;12.10;99.90
25138;DHT22;13112;50.986;4.354;2023-02-03T16:48:22;12.00;99.90
25138;DHT22;13112;50.986;4.354;2023-02-03T16:51:14;11.90;99.90
25138;DHT22;13112;50.986;4.354;2023-02-03T16:53:42;11.70;99.90
25138;DHT22;13112;50.986;4.354;2023-02-03T16:56:09;11.70;99.90
25138;DHT22;13112;50.986;4.354;2023-02-03T16:58:35;11.60;99.90
25138;DHT22;13112;50.986;4.354;2023-02-03T17:01:03;11.60;99.90
25138;DHT22;13112;50.986;4.354;2023-02-03T17:03:30;11.50;99.90
25138;DHT22;13112;50.986;4.354;2023-02-03T17:06:05;11.60;99.90
25138;DHT22;13112;50.986;4.354;2023-02-03T17:08:32;11.40;99.90
25138;DHT22;13112;50.986;4.354;2023-02-03T17:11:06;11.30;99.90
25138;DHT22;13112;50.986;4.354;2023-02-03T17:13:32;11.30;99.90
25138;DHT22;13112;50.986;4.354;2023-02-03T17:15:58;11.30;99.90
25138;DHT22;13112;50.986;4.354;2023-02-03T17:18:24;11.30;99.90
25138;DHT22;13112;50.986;4.354;2023-02-03T17:20:50;11.10;99.90
25138;DHT22;13112;50.986;4.354;2023-02-03T17:23:16;11.10;99.90
25138;DHT22;13112;50.986;4.354;2023-02-03T17:25:47;11.10;99.90
25138;DHT22;13112;50.986;4.354;2023-02-03T17:28:13;10.90;99.90
25138;DHT22;13112;50.986;4.354;2023-02-03T17:30:39;11.00;99.90
25138;DHT22;13112;50.986;4.354;2023-02-03T17:33:07;11.00;99.90
25138;DHT22;13112;50.986;4.354;2023-02-03T17:35:40;10.90;99.90
25138;DHT22;13112;50.986;4.354;2023-02-03T17:38:07;10.90;99.90
25138;DHT22;13112;50.986;4.354;2023-02-03T17:40:33;10.80;99.90
25138;DHT22;13112;50.986;4.354;2023-02-03T17:42:58;10.90;99.90
25138;DHT22;13112;50.986;4.354;2023-02-03T17:45:24;10.90;99.90
25138;DHT22;13112;50.986;4.354;2023-02-03T17:47:50;10.70;99.90
25138;DHT22;13112;50.986;4.354;2023-02-03T17:50:16;10.60;99.90
25138;DHT22;13112;50.986;4.354;2023-02-03T17:52:45;10.60;99.90
25138;DHT22;13112;50.986;4.354;2023-02-03T17:55:10;10.70;99.90
25138;DHT22;13112;50.986;4.354;2023-02-03T17:57:37;10.60;99.90
25138;DHT22;13112;50.986;4.354;2023-02-03T18:00:03;10.70;99.90
25138;DHT22;13112;50.986;4.354;2023-02-03T18:02:29;10.70;99.90
25138;DHT22;13112;50.986;4.354;2023-02-03T18:04:55;10.80;99.90
25138;DHT22;13112;50.986;4.354;2023-02-03T18:07:20;10.70;99.90
25138;DHT22;13112;50.986;4.354;2023-02-03T18:09:46;10.70;99.90
25138;DHT22;13112;50.986;4.354;2023-02-03T18:12:12;10.70;99.90
25138;DHT22;13112;50.986;4.354;2023-02-03T18:14:37;10.70;99.90
25138;DHT22;13112;50.986;4.354;2023-02-03T18:17:03;10.80;99.90
25138;DHT22;13112;50.986;4.354;2023-02-03T18:19:29;10.90;99.90